sensor_id;sensor_type;location;lat;lon;timestamp;pressure;altitude;pressure_sealevel;temperature;humidity
7264;BME280;3673;52.480;13.348;2022-12-29T00:01:37;100239.19;;;12.54;58.95
7264;BME280;3673;52.480;13.348;2022-12-29T00:04:04;100243.59;;;12.52;58.85
7264;BME280;3673;52.480;13.348;2022-12-29T00:06:31;100239.53;;;12.33;59.33
7264;BME280;3673;52.480;13.348;2022-12-29T00:08:58;100225.81;;;12.68;58.50
7264;BME280;3673;52.480;13.348;2022-12-29T00:11:26;100222.59;;;12.54;58.67
7264;BME280;3673;52.480;13.348;2022-12-29T00:13:55;100228.16;;;12.34;59.13
7264;BME280;3673;52.480;13.348;2022-12-29T00:16:42;100215.66;;;12.48;58.78
7264;BME280;3673;52.480;13.348;2022-12-29T00:19:10;100213.59;;;12.67;58.34
7264;BME280;3673;52.480;13.348;2022-12-29T00:21:58;100218.16;;;12.57;58.20
7264;BME280;3673;52.480;13.348;2022-12-29T00:24:57;100228.66;;;12.56;58.13
7264;BME280;3673;52.480;13.348;2022-12-29T00:27:42;100224.25;;;12.58;58.10
7264;BME280;3673;52.480;13.348;2022-12-29T00:30:27;100217.75;;;12.28;58.61
7264;BME280;3673;52.480;13.348;2022-12-29T00:33:14;100206.22;;;12.39;58.34
7264;BME280;3673;52.480;13.348;2022-12-29T00:36:03;100209.94;;;12.75;57.58
7264;BME280;3673;52.480;13.348;2022-12-29T00:38:32;100198.81;;;13.10;56.85
7264;BME280;3673;52.480;13.348;2022-12-29T00:41:17;100209.19;;;12.69;57.44
7264;BME280;3673;52.480;13.348;2022-12-29T00:44:02;100202.69;;;12.88;56.97
7264;BME280;3673;52.480;13.348;2022-12-29T00:46:34;100186.19;;;12.81;57.28
7264;BME280;3673;52.480;13.348;2022-12-29T00:49:02;100206.69;;;12.61;57.87
7264;BME280;3673;52.480;13.348;2022-12-29T00:51:43;100197.19;;;12.56;58.12
7264;BME280;3673;52.480;13.348;2022-12-29T00:54:10;100193.38;;;12.72;57.79
7264;BME280;3673;52.480;13.348;2022-12-29T00:56:37;100180.19;;;12.75;57.39
7264;BME280;3673;52.480;13.348;2022-12-29T00:59:05;100191.09;;;12.54;58.29
7264;BME280;3673;52.480;13.348;2022-12-29T01:01:35;100196.31;;;12.55;58.27
7264;BME280;3673;52.480;13.348;2022-12-29T01:04:02;100180.19;;;12.75;58.01
7264;BME280;3673;52.480;13.348;2022-12-29T01:06:29;100188.19;;;12.69;58.07
7264;BME280;3673;52.480;13.348;2022-12-29T01:08:55;100193.91;;;12.90;57.66
7264;BME280;3673;52.480;13.348;2022-12-29T01:11:37;100204.00;;;12.66;57.75
7264;BME280;3673;52.480;13.348;2022-12-29T01:14:04;100191.81;;;12.62;57.73
7264;BME280;3673;52.480;13.348;2022-12-29T01:16:31;100185.34;;;12.33;58.52
7264;BME280;3673;52.480;13.348;2022-12-29T01:18:59;100190.25;;;12.52;58.20
7264;BME280;3673;52.480;13.348;2022-12-29T01:21:26;100185.81;;;12.55;57.68
7264;BME280;3673;52.480;13.348;2022-12-29T01:23:53;100180.84;;;12.87;56.98
7264;BME280;3673;52.480;13.348;2022-12-29T01:26:19;100181.84;;;12.80;56.95
7264;BME280;3673;52.480;13.348;2022-12-29T01:28:46;100197.03;;;12.63;57.45
7264;BME280;3673;52.480;13.348;2022-12-29T01:31:14;100184.28;;;12.44;58.13
7264;BME280;3673;52.480;13.348;2022-12-29T01:33:42;100189.13;;;12.65;57.28
7264;BME280;3673;52.480;13.348;2022-12-29T01:36:12;100184.94;;;12.56;57.31
7264;BME280;3673;52.480;13.348;2022-12-29T01:38:40;100186.25;;;12.78;57.39
7264;BME280;3673;52.480;13.348;2022-12-29T01:41:10;100185.75;;;12.60;57.24
7264;BME280;3673;52.480;13.348;2022-12-29T01:43:43;100191.97;;;12.53;57.68
7264;BME280;3673;52.480;13.348;2022-12-29T01:46:24;100182.41;;;12.50;57.93
7264;BME280;3673;52.480;13.348;2022-12-29T01:48:57;100189.31;;;12.56;58.23
7264;BME280;3673;52.480;13.348;2022-12-29T01:51:26;100187.63;;;12.52;58.61
7264;BME280;3673;52.480;13.348;2022-12-29T01:53:55;100172.78;;;12.51;58.81
7264;BME280;3673;52.480;13.348;2022-12-29T01:56:25;100172.88;;;12.46;59.01
7264;BME280;3673;52.480;13.348;2022-12-29T01:58:56;100167.56;;;12.48;59.19
7264;BME280;3673;52.480;13.348;2022-12-29T02:01:25;100154.09;;;12.20;59.70
7264;BME280;3673;52.480;13.348;2022-12-29T02:03:51;100152.81;;;12.42;59.41
7264;BME280;3673;52.480;13.348;2022-12-29T02:06:22;100155.19;;;12.56;58.65
7264;BME280;3673;52.480;13.348;2022-12-29T02:08:52;100158.81;;;12.49;59.44
7264;BME280;3673;52.480;13.348;2022-12-29T02:11:23;100152.63;;;12.51;59.10
7264;BME280;3673;52.480;13.348;2022-12-29T02:13:50;100149.00;;;12.58;58.54
7264;BME280;3673;52.480;13.348;2022-12-29T02:16:31;100134.63;;;12.33;58.82
7264;BME280;3673;52.480;13.348;2022-12-29T02:19:32;100142.22;;;12.48;58.32
7264;BME280;3673;52.480;13.348;2022-12-29T02:22:18;100135.00;;;12.59;57.96
7264;BME280;3673;52.480;13.348;2022-12-29T02:28:53;100126.53;;;12.45;57.20
7264;BME280;3673;52.480;13.348;2022-12-29T02:31:29;100119.28;;;12.58;56.85
7264;BME280;3673;52.480;13.348;2022-12-29T02:34:09;100130.38;;;12.72;56.42
7264;BME280;3673;52.480;13.348;2022-12-29T02:36:47;100124.88;;;12.85;55.99
7264;BME280;3673;52.480;13.348;2022-12-29T02:39:24;100115.50;;;12.74;55.69
7264;BME280;3673;52.480;13.348;2022-12-29T02:42:00;100121.00;;;12.60;56.16
7264;BME280;3673;52.480;13.348;2022-12-29T02:44:36;100112.88;;;12.74;55.58
7264;BME280;3673;52.480;13.348;2022-12-29T02:47:15;100127.28;;;12.96;55.18
7264;BME280;3673;52.480;13.348;2022-12-29T02:49:46;100121.16;;;12.96;55.26
7264;BME280;3673;52.480;13.348;2022-12-29T02:52:22;100121.22;;;12.93;55.14
7264;BME280;3673;52.480;13.348;2022-12-29T02:54:49;100117.88;;;12.84;55.42
7264;BME280;3673;52.480;13.348;2022-12-29T02:57:30;100127.28;;;12.96;54.90
7264;BME280;3673;52.480;13.348;2022-12-29T03:00:03;100126.28;;;13.02;54.80
7264;BME280;3673;52.480;13.348;2022-12-29T03:03:00;100120.16;;;13.03;54.72
7264;BME280;3673;52.480;13.348;2022-12-29T03:05:57;100115.81;;;13.00;54.85
7264;BME280;3673;52.480;13.348;2022-12-29T03:08:34;100106.28;;;12.96;54.68
7264;BME280;3673;52.480;13.348;2022-12-29T03:11:05;100104.38;;;13.03;54.35
7264;BME280;3673;52.480;13.348;2022-12-29T03:13:59;100092.44;;;13.29;53.79
7264;BME280;3673;52.480;13.348;2022-12-29T03:16:49;100092.06;;;13.48;53.27
7264;BME280;3673;52.480;13.348;2022-12-29T03:19:21;100091.34;;;13.39;53.48
7264;BME280;3673;52.480;13.348;2022-12-29T03:21:53;100094.53;;;13.54;53.29
7264;BME280;3673;52.480;13.348;2022-12-29T03:24:42;100088.66;;;13.43;53.47
7264;BME280;3673;52.480;13.348;2022-12-29T03:27:14;100100.09;;;13.40;53.38
7264;BME280;3673;52.480;13.348;2022-12-29T03:29:49;100079.88;;;13.79;52.81
7264;BME280;3673;52.480;13.348;2022-12-29T03:32:20;100088.25;;;13.59;52.87
7264;BME280;3673;52.480;13.348;2022-12-29T03:34:50;100096.13;;;13.61;53.21
7264;BME280;3673;52.480;13.348;2022-12-29T03:37:22;100095.34;;;13.56;52.91
7264;BME280;3673;52.480;13.348;2022-12-29T03:39:50;100088.19;;;13.62;53.21
7264;BME280;3673;52.480;13.348;2022-12-29T03:42:20;100088.28;;;13.58;53.07
7264;BME280;3673;52.480;13.348;2022-12-29T03:44:54;100076.84;;;13.60;53.12
7264;BME280;3673;52.480;13.348;2022-12-29T03:47:23;100074.81;;;13.71;53.25
7264;BME280;3673;52.480;13.348;2022-12-29T03:49:52;100081.72;;;13.75;53.01
7264;BME280;3673;52.480;13.348;2022-12-29T03:52:19;100079.56;;;13.91;52.39
7264;BME280;3673;52.480;13.348;2022-12-29T03:54:46;100082.25;;;13.89;52.75
7264;BME280;3673;52.480;13.348;2022-12-29T03:57:12;100085.13;;;13.80;52.70
7264;BME280;3673;52.480;13.348;2022-12-29T03:59:39;100073.94;;;14.06;52.40
7264;BME280;3673;52.480;13.348;2022-12-29T04:02:06;100087.16;;;14.03;52.49
7264;BME280;3673;52.480;13.348;2022-12-29T04:04:33;100067.19;;;13.96;52.83
7264;BME280;3673;52.480;13.348;2022-12-29T04:07:01;100076.31;;;13.81;53.38
7264;BME280;3673;52.480;13.348;2022-12-29T04:09:27;100066.22;;;13.65;53.62
7264;BME280;3673;52.480;13.348;2022-12-29T04:11:55;100078.16;;;13.78;53.43
7264;BME280;3673;52.480;13.348;2022-12-29T04:14:22;100070.66;;;13.63;53.70
7264;BME280;3673;52.480;13.348;2022-12-29T04:16:48;100071.97;;;13.80;53.50
7264;BME280;3673;52.480;13.348;2022-12-29T04:19:15;100065.56;;;13.57;53.93
7264;BME280;3673;52.480;13.348;2022-12-29T04:21:42;100072.56;;;13.56;54.10
7264;BME280;3673;52.480;13.348;2022-12-29T04:24:10;100077.09;;;13.85;53.40
7264;BME280;3673;52.480;13.348;2022-12-29T04:26:38;100082.69;;;13.71;53.42
7264;BME280;3673;52.480;13.348;2022-12-29T04:29:05;100075.53;;;13.78;53.37
7264;BME280;3673;52.480;13.348;2022-12-29T04:31:31;100074.53;;;13.83;53.37
7264;BME280;3673;52.480;13.348;2022-12-29T04:33:58;100066.09;;;13.71;53.33
7264;BME280;3673;52.480;13.348;2022-12-29T04:36:26;100050.66;;;13.91;53.01
7264;BME280;3673;52.480;13.348;2022-12-29T04:38:52;100054.44;;;13.81;52.88
7264;BME280;3673;52.480;13.348;2022-12-29T04:41:20;100044.75;;;13.83;53.22
7264;BME280;3673;52.480;13.348;2022-12-29T04:43:47;100052.72;;;13.78;53.29
7264;BME280;3673;52.480;13.348;2022-12-29T04:46:14;100061.19;;;13.56;53.88
7264;BME280;3673;52.480;13.348;2022-12-29T04:48:41;100058.84;;;13.44;54.35
7264;BME280;3673;52.480;13.348;2022-12-29T04:51:07;100051.84;;;13.44;54.23
7264;BME280;3673;52.480;13.348;2022-12-29T04:53:34;100045.88;;;13.71;53.74
7264;BME280;3673;52.480;13.348;2022-12-29T04:56:01;100046.41;;;13.85;53.53
7264;BME280;3673;52.480;13.348;2022-12-29T04:58:29;100036.38;;;13.67;53.80
7264;BME280;3673;52.480;13.348;2022-12-29T05:00:56;100037.75;;;13.82;53.87
7264;BME280;3673;52.480;13.348;2022-12-29T05:03:23;100050.72;;;13.88;53.69
7264;BME280;3673;52.480;13.348;2022-12-29T05:05:53;100060.06;;;13.66;54.14
7264;BME280;3673;52.480;13.348;2022-12-29T05:08:20;100057.03;;;13.47;54.68
7264;BME280;3673;52.480;13.348;2022-12-29T05:10:47;100048.03;;;13.57;54.47
7264;BME280;3673;52.480;13.348;2022-12-29T05:13:16;100047.13;;;13.92;53.78
7264;BME280;3673;52.480;13.348;2022-12-29T05:15:49;100031.41;;;13.90;53.80
7264;BME280;3673;52.480;13.348;2022-12-29T05:18:16;100015.81;;;13.83;54.02
7264;BME280;3673;52.480;13.348;2022-12-29T05:20:43;100032.47;;;13.82;54.14
7264;BME280;3673;52.480;13.348;2022-12-29T05:23:10;100035.13;;;13.82;53.82
7264;BME280;3673;52.480;13.348;2022-12-29T05:25:37;100032.25;;;13.91;54.18
7264;BME280;3673;52.480;13.348;2022-12-29T05:28:04;100018.47;;;13.81;54.21
7264;BME280;3673;52.480;13.348;2022-12-29T05:30:31;100012.03;;;13.93;54.07
7264;BME280;3673;52.480;13.348;2022-12-29T05:32:59;100023.44;;;14.26;53.30
7264;BME280;3673;52.480;13.348;2022-12-29T05:35:26;100024.84;;;14.05;53.88
7264;BME280;3673;52.480;13.348;2022-12-29T05:37:53;100015.03;;;14.12;53.60
7264;BME280;3673;52.480;13.348;2022-12-29T05:40:19;100000.97;;;14.14;53.72
7264;BME280;3673;52.480;13.348;2022-12-29T05:42:46;100002.28;;;14.29;53.63
7264;BME280;3673;52.480;13.348;2022-12-29T05:45:13;100007.22;;;14.10;53.80
7264;BME280;3673;52.480;13.348;2022-12-29T05:47:40;100017.34;;;14.24;53.73
7264;BME280;3673;52.480;13.348;2022-12-29T05:50:08;100008.78;;;14.17;53.81
7264;BME280;3673;52.480;13.348;2022-12-29T05:52:35;100005.56;;;14.38;53.66
7264;BME280;3673;52.480;13.348;2022-12-29T05:55:02;100003.72;;;14.08;54.03
7264;BME280;3673;52.480;13.348;2022-12-29T05:57:28;99995.03;;;14.38;53.43
7264;BME280;3673;52.480;13.348;2022-12-29T05:59:55;99997.34;;;14.51;53.42
7264;BME280;3673;52.480;13.348;2022-12-29T06:02:22;99999.03;;;14.52;53.50
7264;BME280;3673;52.480;13.348;2022-12-29T06:04:49;99994.25;;;14.35;53.76
7264;BME280;3673;52.480;13.348;2022-12-29T06:07:17;99986.47;;;14.30;53.83
7264;BME280;3673;52.480;13.348;2022-12-29T06:09:44;99995.78;;;14.43;53.74
7264;BME280;3673;52.480;13.348;2022-12-29T06:12:10;100005.25;;;14.49;53.61
7264;BME280;3673;52.480;13.348;2022-12-29T06:14:37;99998.53;;;14.39;53.78
7264;BME280;3673;52.480;13.348;2022-12-29T06:17:04;99990.00;;;14.29;54.21
7264;BME280;3673;52.480;13.348;2022-12-29T06:19:31;99987.03;;;14.41;53.79
7264;BME280;3673;52.480;13.348;2022-12-29T06:21:57;99992.38;;;14.40;54.09
7264;BME280;3673;52.480;13.348;2022-12-29T06:24:25;99995.19;;;14.32;54.14
7264;BME280;3673;52.480;13.348;2022-12-29T06:26:52;99993.50;;;14.30;54.09
7264;BME280;3673;52.480;13.348;2022-12-29T06:29:19;99994.31;;;14.32;54.03
7264;BME280;3673;52.480;13.348;2022-12-29T06:31:47;99993.44;;;14.64;53.47
7264;BME280;3673;52.480;13.348;2022-12-29T06:34:14;100001.72;;;14.50;53.57
7264;BME280;3673;52.480;13.348;2022-12-29T06:36:41;99989.09;;;14.61;53.60
7264;BME280;3673;52.480;13.348;2022-12-29T06:39:08;99994.44;;;14.60;53.50
7264;BME280;3673;52.480;13.348;2022-12-29T06:41:36;100011.22;;;14.23;54.52
7264;BME280;3673;52.480;13.348;2022-12-29T06:44:03;100014.72;;;14.24;54.37
7264;BME280;3673;52.480;13.348;2022-12-29T06:46:30;100005.84;;;14.59;53.85
7264;BME280;3673;52.480;13.348;2022-12-29T06:48:56;99997.81;;;14.34;54.16
7264;BME280;3673;52.480;13.348;2022-12-29T06:51:23;100003.59;;;14.47;54.16
7264;BME280;3673;52.480;13.348;2022-12-29T06:53:50;100012.19;;;14.52;53.93
7264;BME280;3673;52.480;13.348;2022-12-29T06:56:17;100009.16;;;14.36;54.46
7264;BME280;3673;52.480;13.348;2022-12-29T06:58:45;100019.56;;;14.40;54.25
7264;BME280;3673;52.480;13.348;2022-12-29T07:01:12;100020.81;;;14.24;54.70
7264;BME280;3673;52.480;13.348;2022-12-29T07:03:41;100026.44;;;14.44;54.15
7264;BME280;3673;52.480;13.348;2022-12-29T07:06:07;100027.06;;;14.54;53.87
7264;BME280;3673;52.480;13.348;2022-12-29T07:08:34;100016.75;;;14.47;53.96
7264;BME280;3673;52.480;13.348;2022-12-29T07:11:01;100022.72;;;14.52;54.01
7264;BME280;3673;52.480;13.348;2022-12-29T07:13:28;100025.34;;;14.52;53.96
7264;BME280;3673;52.480;13.348;2022-12-29T07:15:56;100022.91;;;14.75;53.28
7264;BME280;3673;52.480;13.348;2022-12-29T07:18:23;100032.66;;;14.42;54.18
7264;BME280;3673;52.480;13.348;2022-12-29T07:20:49;100037.72;;;14.48;54.03
7264;BME280;3673;52.480;13.348;2022-12-29T07:23:16;100025.53;;;14.13;54.92
7264;BME280;3673;52.480;13.348;2022-12-29T07:25:43;100031.44;;;14.21;54.72
7264;BME280;3673;52.480;13.348;2022-12-29T07:28:10;100032.81;;;14.37;54.43
7264;BME280;3673;52.480;13.348;2022-12-29T07:30:37;100038.34;;;14.25;54.68
7264;BME280;3673;52.480;13.348;2022-12-29T07:33:05;100019.22;;;14.20;55.08
7264;BME280;3673;52.480;13.348;2022-12-29T07:35:33;100015.22;;;14.06;55.37
7264;BME280;3673;52.480;13.348;2022-12-29T07:38:00;100008.16;;;14.40;54.42
7264;BME280;3673;52.480;13.348;2022-12-29T07:40:27;100013.94;;;14.20;55.11
7264;BME280;3673;52.480;13.348;2022-12-29T07:42:53;100011.78;;;14.36;54.64
7264;BME280;3673;52.480;13.348;2022-12-29T07:45:20;100018.06;;;14.29;54.60
7264;BME280;3673;52.480;13.348;2022-12-29T07:47:48;100005.47;;;14.41;54.69
7264;BME280;3673;52.480;13.348;2022-12-29T07:50:16;100012.41;;;14.12;55.22
7264;BME280;3673;52.480;13.348;2022-12-29T07:52:44;100015.06;;;14.44;54.66
7264;BME280;3673;52.480;13.348;2022-12-29T07:55:12;100019.66;;;14.37;55.01
7264;BME280;3673;52.480;13.348;2022-12-29T07:57:39;100023.50;;;14.55;54.22
7264;BME280;3673;52.480;13.348;2022-12-29T08:00:08;100026.66;;;14.37;54.93
7264;BME280;3673;52.480;13.348;2022-12-29T08:02:35;100022.00;;;14.77;54.03
7264;BME280;3673;52.480;13.348;2022-12-29T08:05:02;100017.72;;;14.42;54.70
7264;BME280;3673;52.480;13.348;2022-12-29T08:07:30;100029.38;;;14.34;54.95
7264;BME280;3673;52.480;13.348;2022-12-29T08:09:57;100029.72;;;14.53;54.62
7264;BME280;3673;52.480;13.348;2022-12-29T08:12:23;100016.94;;;14.39;54.95
7264;BME280;3673;52.480;13.348;2022-12-29T08:14:50;100013.84;;;14.56;54.37
7264;BME280;3673;52.480;13.348;2022-12-29T08:17:17;100014.19;;;14.43;54.88
7264;BME280;3673;52.480;13.348;2022-12-29T08:19:44;100003.19;;;14.60;54.62
7264;BME280;3673;52.480;13.348;2022-12-29T08:22:12;100006.69;;;14.61;54.32
7264;BME280;3673;52.480;13.348;2022-12-29T08:24:41;100021.84;;;14.51;54.71
7264;BME280;3673;52.480;13.348;2022-12-29T08:27:07;100010.59;;;14.48;54.56
7264;BME280;3673;52.480;13.348;2022-12-29T08:29:35;100018.97;;;14.60;54.50
7264;BME280;3673;52.480;13.348;2022-12-29T08:32:01;100022.13;;;14.73;54.06
7264;BME280;3673;52.480;13.348;2022-12-29T08:34:30;100006.41;;;14.70;53.95
7264;BME280;3673;52.480;13.348;2022-12-29T08:36:57;100012.16;;;14.53;54.65
7264;BME280;3673;52.480;13.348;2022-12-29T08:39:27;99997.84;;;14.63;54.21
7264;BME280;3673;52.480;13.348;2022-12-29T08:41:55;99994.13;;;14.39;54.78
7264;BME280;3673;52.480;13.348;2022-12-29T08:44:22;100011.47;;;14.47;54.52
7264;BME280;3673;52.480;13.348;2022-12-29T08:46:49;100003.91;;;14.65;54.31
7264;BME280;3673;52.480;13.348;2022-12-29T08:49:16;100010.44;;;14.52;54.56
7264;BME280;3673;52.480;13.348;2022-12-29T08:51:43;100005.34;;;14.46;54.66
7264;BME280;3673;52.480;13.348;2022-12-29T08:54:10;100006.69;;;14.61;54.44
7264;BME280;3673;52.480;13.348;2022-12-29T08:56:37;100004.09;;;14.59;54.46
7264;BME280;3673;52.480;13.348;2022-12-29T08:59:05;100005.13;;;14.83;53.92
7264;BME280;3673;52.480;13.348;2022-12-29T09:01:32;100006.50;;;14.67;54.26
7264;BME280;3673;52.480;13.348;2022-12-29T09:04:02;99999.06;;;14.81;54.01
7264;BME280;3673;52.480;13.348;2022-12-29T09:06:29;100002.19;;;14.93;53.85
7264;BME280;3673;52.480;13.348;2022-12-29T09:08:55;99996.53;;;15.06;53.59
7264;BME280;3673;52.480;13.348;2022-12-29T09:11:24;99996.00;;;14.65;54.18
7264;BME280;3673;52.480;13.348;2022-12-29T09:13:52;99996.88;;;14.66;54.13
7264;BME280;3673;52.480;13.348;2022-12-29T09:16:23;100007.63;;;14.58;54.72
7264;BME280;3673;52.480;13.348;2022-12-29T09:18:50;100005.66;;;14.65;54.42
7264;BME280;3673;52.480;13.348;2022-12-29T09:21:17;100003.22;;;14.59;54.78
7264;BME280;3673;52.480;13.348;2022-12-29T09:23:44;99993.13;;;14.74;54.41
7264;BME280;3673;52.480;13.348;2022-12-29T09:26:11;99987.53;;;15.13;53.59
7264;BME280;3673;52.480;13.348;2022-12-29T09:28:38;100001.25;;;14.94;53.71
7264;BME280;3673;52.480;13.348;2022-12-29T09:31:06;99998.19;;;15.08;53.75
7264;BME280;3673;52.480;13.348;2022-12-29T09:33:34;99990.56;;;14.71;54.39
7264;BME280;3673;52.480;13.348;2022-12-29T09:36:02;99993.13;;;15.02;53.92
7264;BME280;3673;52.480;13.348;2022-12-29T09:38:29;99996.22;;;15.15;53.30
7264;BME280;3673;52.480;13.348;2022-12-29T09:41:01;99982.25;;;15.13;53.54
7264;BME280;3673;52.480;13.348;2022-12-29T09:43:59;99977.72;;;14.90;54.16
7264;BME280;3673;52.480;13.348;2022-12-29T09:46:32;99990.88;;;14.90;53.80
7264;BME280;3673;52.480;13.348;2022-12-29T09:49:11;99969.03;;;14.86;54.18
7264;BME280;3673;52.480;13.348;2022-12-29T09:51:44;99976.09;;;15.14;53.68
7264;BME280;3673;52.480;13.348;2022-12-29T09:54:34;99979.47;;;14.89;54.24
7264;BME280;3673;52.480;13.348;2022-12-29T09:57:04;99965.00;;;15.03;53.92
7264;BME280;3673;52.480;13.348;2022-12-29T09:59:41;99980.16;;;15.24;53.69
7264;BME280;3673;52.480;13.348;2022-12-29T10:02:23;99978.88;;;15.35;53.19
7264;BME280;3673;52.480;13.348;2022-12-29T10:04:57;99980.91;;;15.55;52.83
7264;BME280;3673;52.480;13.348;2022-12-29T10:07:33;99977.75;;;15.70;52.43
7264;BME280;3673;52.480;13.348;2022-12-29T10:10:18;99976.22;;;15.63;52.44
7264;BME280;3673;52.480;13.348;2022-12-29T10:13:09;99994.25;;;15.21;53.70
7264;BME280;3673;52.480;13.348;2022-12-29T10:15:52;99988.31;;;15.42;53.21
7264;BME280;3673;52.480;13.348;2022-12-29T10:21:38;99978.84;;;15.37;53.39
7264;BME280;3673;52.480;13.348;2022-12-29T10:24:12;99973.25;;;15.74;52.71
7264;BME280;3673;52.480;13.348;2022-12-29T10:26:42;99972.47;;;15.70;53.03
7264;BME280;3673;52.480;13.348;2022-12-29T10:29:15;99968.66;;;15.54;53.41
7264;BME280;3673;52.480;13.348;2022-12-29T10:31:46;99958.75;;;15.85;52.65
7264;BME280;3673;52.480;13.348;2022-12-29T10:34:21;99954.94;;;15.94;52.26
7264;BME280;3673;52.480;13.348;2022-12-29T10:36:57;99964.44;;;15.98;52.08
7264;BME280;3673;52.480;13.348;2022-12-29T10:39:30;99969.19;;;15.64;53.09
7264;BME280;3673;52.480;13.348;2022-12-29T10:42:07;99967.72;;;15.55;53.31
7264;BME280;3673;52.480;13.348;2022-12-29T10:44:36;99960.00;;;16.00;52.20
7264;BME280;3673;52.480;13.348;2022-12-29T10:47:05;99961.97;;;16.18;51.78
7264;BME280;3673;52.480;13.348;2022-12-29T10:49:39;99959.66;;;16.09;52.08
7264;BME280;3673;52.480;13.348;2022-12-29T10:52:11;99956.66;;;15.95;52.34
7264;BME280;3673;52.480;13.348;2022-12-29T10:54:44;99961.47;;;15.84;52.77
7264;BME280;3673;52.480;13.348;2022-12-29T10:57:18;99952.03;;;15.77;52.74
7264;BME280;3673;52.480;13.348;2022-12-29T10:59:47;99959.56;;;15.87;52.47
7264;BME280;3673;52.480;13.348;2022-12-29T11:05:24;99961.75;;;16.24;51.62
7264;BME280;3673;52.480;13.348;2022-12-29T11:08:03;99966.59;;;16.12;51.96
7264;BME280;3673;52.480;13.348;2022-12-29T11:10:37;99966.41;;;15.93;52.24
7264;BME280;3673;52.480;13.348;2022-12-29T11:13:13;99964.78;;;15.64;52.98
7264;BME280;3673;52.480;13.348;2022-12-29T11:15:41;99964.75;;;15.90;52.67
7264;BME280;3673;52.480;13.348;2022-12-29T11:18:20;99960.41;;;16.13;52.24
7264;BME280;3673;52.480;13.348;2022-12-29T11:20:48;99956.38;;;15.78;52.98
7264;BME280;3673;52.480;13.348;2022-12-29T11:23:30;99971.72;;;15.67;53.64
7264;BME280;3673;52.480;13.348;2022-12-29T11:26:17;99972.59;;;15.92;52.79
7264;BME280;3673;52.480;13.348;2022-12-29T11:31:30;99975.97;;;15.95;53.20
7264;BME280;3673;52.480;13.348;2022-12-29T11:33:57;99986.50;;;15.97;53.53
7264;BME280;3673;52.480;13.348;2022-12-29T11:36:24;99976.41;;;16.08;53.66
7264;BME280;3673;52.480;13.348;2022-12-29T11:38:54;99981.38;;;15.68;55.48
7264;BME280;3673;52.480;13.348;2022-12-29T11:41:24;99986.06;;;15.58;56.10
7264;BME280;3673;52.480;13.348;2022-12-29T11:43:53;99986.13;;;15.81;55.84
7264;BME280;3673;52.480;13.348;2022-12-29T11:46:24;99972.53;;;15.69;56.02
7264;BME280;3673;52.480;13.348;2022-12-29T11:48:52;99992.41;;;16.04;55.27
7264;BME280;3673;52.480;13.348;2022-12-29T11:51:26;99979.38;;;15.99;55.10
7264;BME280;3673;52.480;13.348;2022-12-29T11:53:58;99979.53;;;15.94;55.58
7264;BME280;3673;52.480;13.348;2022-12-29T11:56:38;99990.59;;;15.81;56.62
7264;BME280;3673;52.480;13.348;2022-12-29T11:59:40;100009.97;;;15.54;57.68
7264;BME280;3673;52.480;13.348;2022-12-29T12:02:28;100015.53;;;15.43;58.26
7264;BME280;3673;52.480;13.348;2022-12-29T12:05:06;100013.09;;;15.37;58.63
7264;BME280;3673;52.480;13.348;2022-12-29T12:07:40;100014.56;;;15.18;59.98
7264;BME280;3673;52.480;13.348;2022-12-29T12:10:19;99999.47;;;14.67;61.49
7264;BME280;3673;52.480;13.348;2022-12-29T12:12:53;100001.78;;;14.16;63.57
7264;BME280;3673;52.480;13.348;2022-12-29T12:15:27;99996.59;;;14.46;63.05
7264;BME280;3673;52.480;13.348;2022-12-29T12:18:02;100013.03;;;14.54;62.62
7264;BME280;3673;52.480;13.348;2022-12-29T12:20:42;100002.03;;;14.39;64.09
7264;BME280;3673;52.480;13.348;2022-12-29T12:23:27;100008.78;;;14.16;64.19
7264;BME280;3673;52.480;13.348;2022-12-29T12:26:04;100002.47;;;14.23;64.37
7264;BME280;3673;52.480;13.348;2022-12-29T12:28:45;99989.44;;;14.51;64.21
7264;BME280;3673;52.480;13.348;2022-12-29T12:31:22;99997.47;;;14.44;63.91
7264;BME280;3673;52.480;13.348;2022-12-29T12:33:54;100002.75;;;14.44;64.10
7264;BME280;3673;52.480;13.348;2022-12-29T12:37:04;99987.28;;;14.34;64.22
7264;BME280;3673;52.480;13.348;2022-12-29T12:39:44;99981.47;;;14.52;64.19
7264;BME280;3673;52.480;13.348;2022-12-29T12:42:28;99991.97;;;14.54;63.89
7264;BME280;3673;52.480;13.348;2022-12-29T12:45:28;99993.66;;;14.56;63.40
7264;BME280;3673;52.480;13.348;2022-12-29T12:48:13;99989.59;;;14.44;62.84
7264;BME280;3673;52.480;13.348;2022-12-29T12:50:54;99998.31;;;14.47;62.47
7264;BME280;3673;52.480;13.348;2022-12-29T12:53:35;99992.38;;;14.40;62.50
7264;BME280;3673;52.480;13.348;2022-12-29T12:56:31;99980.22;;;14.34;62.87
7264;BME280;3673;52.480;13.348;2022-12-29T12:59:15;99994.44;;;14.58;61.63
7264;BME280;3673;52.480;13.348;2022-12-29T13:01:49;100002.03;;;14.39;61.86
7264;BME280;3673;52.480;13.348;2022-12-29T13:04:58;100000.78;;;14.53;61.65
7264;BME280;3673;52.480;13.348;2022-12-29T13:07:40;100003.72;;;14.71;61.43
7264;BME280;3673;52.480;13.348;2022-12-29T13:10:25;99996.44;;;15.09;60.58
7264;BME280;3673;52.480;13.348;2022-12-29T13:13:24;100002.50;;;14.83;61.38
7264;BME280;3673;52.480;13.348;2022-12-29T13:16:04;99993.28;;;14.98;61.33
7264;BME280;3673;52.480;13.348;2022-12-29T13:18:41;99999.38;;;14.98;61.03
7264;BME280;3673;52.480;13.348;2022-12-29T13:21:24;100001.09;;;15.01;61.30
7264;BME280;3673;52.480;13.348;2022-12-29T13:23:59;100005.44;;;14.72;61.90
7264;BME280;3673;52.480;13.348;2022-12-29T13:26:32;100002.50;;;14.83;61.61
7264;BME280;3673;52.480;13.348;2022-12-29T13:29:12;100002.88;;;14.99;61.07
7264;BME280;3673;52.480;13.348;2022-12-29T13:31:52;100010.69;;;14.74;61.80
7264;BME280;3673;52.480;13.348;2022-12-29T13:34:32;100007.38;;;14.67;61.69
7264;BME280;3673;52.480;13.348;2022-12-29T13:37:08;100018.47;;;15.06;61.03
7264;BME280;3673;52.480;13.348;2022-12-29T13:39:39;100010.75;;;15.00;61.09
7264;BME280;3673;52.480;13.348;2022-12-29T13:42:07;100013.31;;;15.03;60.84